createdAt,value
2023-02-21T00:00:05.493Z,3.08
2023-02-21T00:03:12.243Z,3.05
2023-02-21T00:06:17.383Z,3.88
2023-02-21T00:09:22.648Z,4.28
2023-02-21T00:12:29.033Z,2.70
2023-02-21T00:15:34.154Z,3.20
2023-02-21T00:18:39.627Z,2.33
2023-02-21T00:21:47.517Z,2.63
2023-02-21T00:24:52.689Z,3.33
2023-02-21T00:27:59.658Z,2.75
2023-02-21T00:31:05.199Z,2.67
2023-02-21T00:34:10.627Z,2.25
2023-02-21T00:37:15.866Z,2.60
2023-02-21T00:40:21.672Z,2.65
2023-02-21T00:43:28.216Z,2.78
2023-02-21T00:46:33.425Z,2.50
2023-02-21T00:49:38.929Z,2.78
2023-02-21T00:52:44.111Z,2.53
2023-02-21T00:55:48.880Z,3.10
2023-02-21T00:58:54.954Z,3.45
2023-02-21T01:01:59.886Z,3.45
2023-02-21T01:05:04.996Z,3.22
2023-02-21T01:08:09.784Z,2.60
2023-02-21T01:11:15.265Z,2.50
2023-02-21T01:14:22.029Z,2.50
2023-02-21T01:17:27.340Z,3.03
2023-02-21T01:20:32.866Z,2.88
2023-02-21T01:23:37.888Z,2.65
2023-02-21T01:26:42.997Z,3.60
2023-02-21T01:29:49.382Z,2.22
2023-02-21T01:32:54.408Z,2.90
2023-02-21T01:35:59.452Z,2.45
2023-02-21T01:39:07.366Z,3.40
2023-02-21T01:42:12.693Z,2.70
2023-02-21T01:45:58.862Z,2.90
2023-02-21T01:49:05.538Z,2.85
2023-02-21T01:52:11.400Z,2.70
2023-02-21T01:55:17.378Z,3.08
2023-02-21T01:58:22.576Z,2.67
2023-02-21T02:01:34.958Z,3.58
2023-02-21T02:04:40.090Z,2.85
2023-02-21T02:07:45.229Z,3.20
2023-02-21T02:10:50.684Z,2.67
2023-02-21T02:13:55.892Z,2.45
2023-02-21T02:16:50.941Z,2.40
2023-02-21T02:20:19.842Z,2.80
2023-02-21T02:23:27.788Z,2.97
2023-02-21T02:26:53.084Z,3.28
2023-02-21T02:30:07.978Z,2.80
2023-02-21T02:33:28.797Z,2.72
2023-02-21T02:36:25.309Z,2.85
2023-02-21T02:39:23.888Z,2.95
2023-02-21T02:42:20.414Z,2.70
2023-02-21T02:45:14.657Z,2.45
2023-02-21T02:48:08.373Z,3.13
2023-02-21T02:50:57.097Z,2.20
2023-02-21T02:53:45.991Z,2.50
2023-02-21T02:56:36.802Z,2.53
2023-02-21T02:59:29.169Z,2.33
2023-02-21T03:02:38.787Z,2.50
2023-02-21T03:05:44.381Z,2.47
2023-02-21T03:08:41.178Z,2.75
2023-02-21T03:11:30.590Z,2.53
2023-02-21T03:14:21.186Z,2.53
2023-02-21T03:17:12.924Z,2.78
2023-02-21T03:20:05.854Z,3.25
2023-02-21T03:22:55.731Z,2.78
2023-02-21T03:25:46.595Z,2.88
2023-02-21T03:28:37.175Z,3.13
2023-02-21T03:31:32.200Z,2.80
2023-02-21T03:34:20.247Z,3.22
2023-02-21T03:37:10.347Z,2.95
2023-02-21T03:39:58.248Z,3.70
2023-02-21T03:42:46.163Z,3.13
2023-02-21T03:45:35.478Z,3.50
2023-02-21T03:48:31.781Z,3.30
2023-02-21T03:51:22.202Z,3.67
2023-02-21T03:54:10.059Z,3.53
2023-02-21T03:56:57.980Z,3.80
2023-02-21T03:59:46.980Z,3.72
2023-02-21T04:02:36.266Z,3.25
2023-02-21T04:05:24.029Z,4.03
2023-02-21T04:08:12.273Z,3.08
2023-02-21T04:11:00.040Z,3.33
2023-02-21T04:13:47.937Z,3.00
2023-02-21T04:16:36.017Z,2.97
2023-02-21T04:19:25.169Z,3.47
2023-02-21T04:22:14.630Z,4.00
2023-02-21T04:25:02.278Z,3.70
2023-02-21T04:27:50.258Z,2.90
2023-02-21T04:30:38.196Z,3.83
2023-02-21T04:33:26.139Z,3.22
2023-02-21T04:36:15.603Z,3.22
2023-02-21T04:39:05.570Z,3.70
2023-02-21T04:41:53.864Z,3.78
2023-02-21T04:44:42.876Z,2.95
2023-02-21T04:47:32.284Z,3.75
2023-02-21T04:50:20.599Z,2.97
2023-02-21T04:53:09.953Z,2.80
2023-02-21T04:55:57.737Z,3.50
2023-02-21T04:58:46.246Z,3.05
2023-02-21T05:01:34.303Z,2.95
2023-02-21T05:04:21.882Z,3.10
2023-02-21T05:07:09.740Z,2.92
2023-02-21T05:09:58.685Z,2.80
2023-02-21T05:12:46.451Z,3.08
2023-02-21T05:15:36.565Z,2.60
2023-02-21T05:18:28.681Z,3.65
2023-02-21T05:21:18.059Z,2.90
2023-02-21T05:24:06.587Z,3.13
2023-02-21T05:26:56.201Z,2.40
2023-02-21T05:29:44.188Z,3.80
2023-02-21T05:32:31.832Z,2.92
2023-02-21T05:35:20.108Z,3.25
2023-02-21T05:38:07.800Z,3.10
2023-02-21T05:40:55.988Z,2.90
2023-02-21T05:43:47.038Z,3.03
2023-02-21T05:46:36.291Z,3.90
2023-02-21T05:49:25.751Z,3.30
2023-02-21T05:52:19.051Z,3.95
2023-02-21T05:55:07.399Z,2.88
2023-02-21T05:57:55.669Z,2.63
2023-02-21T06:00:44.879Z,3.35
2023-02-21T06:03:33.226Z,3.00
2023-02-21T06:06:21.372Z,3.72
2023-02-21T06:09:10.326Z,3.45
2023-02-21T06:11:58.596Z,3.40
2023-02-21T06:14:46.342Z,4.25
2023-02-21T06:17:37.042Z,3.83
2023-02-21T06:20:26.625Z,3.28
2023-02-21T06:23:14.723Z,3.78
2023-02-21T06:26:02.741Z,3.75
2023-02-21T06:28:50.963Z,4.70
2023-02-21T06:31:39.125Z,4.57
2023-02-21T06:34:29.236Z,4.10
2023-02-21T06:37:19.074Z,4.30
2023-02-21T06:40:07.350Z,4.57
2023-02-21T06:42:55.181Z,4.50
2023-02-21T06:45:43.141Z,3.70
2023-02-21T06:48:31.167Z,3.42
2023-02-21T06:51:21.171Z,4.35
2023-02-21T06:54:09.944Z,4.40
2023-02-21T06:56:57.838Z,3.70
2023-02-21T06:59:45.709Z,4.13
2023-02-21T07:02:33.528Z,3.72
2023-02-21T07:05:21.928Z,3.90
2023-02-21T07:08:11.270Z,4.68
2023-02-21T07:10:58.959Z,3.80
2023-02-21T07:13:50.861Z,4.00
2023-02-21T07:16:38.970Z,3.92
2023-02-21T07:19:27.020Z,4.45
2023-02-21T07:22:15.036Z,4.72
2023-02-21T07:25:04.461Z,3.53
2023-02-21T07:27:53.779Z,4.47
2023-02-21T07:30:41.825Z,3.85
2023-02-21T07:33:29.829Z,5.28
2023-02-21T07:36:18.408Z,5.60
2023-02-21T07:39:06.567Z,4.57
2023-02-21T07:41:56.481Z,4.03
2023-02-21T07:44:44.462Z,4.53
2023-02-21T07:47:32.474Z,4.68
2023-02-21T07:50:20.375Z,5.50
2023-02-21T07:53:11.093Z,4.75
2023-02-21T07:55:59.330Z,4.30
2023-02-21T07:58:48.534Z,4.32
2023-02-21T08:01:36.676Z,4.20
2023-02-21T08:04:24.483Z,4.75
2023-02-21T08:07:12.811Z,3.90
2023-02-21T08:10:00.404Z,5.20
2023-02-21T08:12:48.359Z,4.07
2023-02-21T08:15:37.606Z,5.28
2023-02-21T08:18:25.992Z,4.65
2023-02-21T08:21:14.184Z,6.47
2023-02-21T08:24:02.295Z,4.55
2023-02-21T08:26:50.188Z,5.50
2023-02-21T08:29:38.049Z,5.03
2023-02-21T08:32:27.646Z,4.53
2023-02-21T08:35:17.226Z,4.80
2023-02-21T08:38:05.269Z,5.25
2023-02-21T08:40:57.167Z,4.20
2023-02-21T08:43:45.159Z,4.38
2023-02-21T08:46:32.788Z,4.10
2023-02-21T08:49:22.279Z,5.35
2023-02-21T08:52:11.143Z,5.15
2023-02-21T08:54:59.177Z,4.72
2023-02-21T08:57:47.002Z,5.50
2023-02-21T09:00:34.667Z,4.50
2023-02-21T09:03:22.603Z,5.18
2023-02-21T09:06:11.932Z,5.20
2023-02-21T09:08:59.894Z,5.28
2023-02-21T09:11:49.316Z,4.93
2023-02-21T09:14:38.004Z,5.05
2023-02-21T09:17:25.804Z,5.15
2023-02-21T09:20:18.888Z,5.15
2023-02-21T09:23:07.942Z,4.28
2023-02-21T09:25:55.910Z,5.07
2023-02-21T09:28:44.192Z,4.82
2023-02-21T09:31:32.133Z,4.45
2023-02-21T09:34:22.179Z,3.97
2023-02-21T09:37:10.498Z,4.63
2023-02-21T09:39:59.558Z,4.80
2023-02-21T09:42:50.421Z,4.18
2023-02-21T09:45:39.506Z,4.95
2023-02-21T09:48:29.629Z,4.40
2023-02-21T09:51:18.655Z,4.28
2023-02-21T09:54:08.840Z,4.47
2023-02-21T09:57:01.633Z,3.92
2023-02-21T09:59:50.957Z,3.83
2023-02-21T10:02:52.395Z,4.43
2023-02-21T10:05:45.617Z,4.00
2023-02-21T10:08:40.446Z,4.72
2023-02-21T10:11:36.723Z,4.63
2023-02-21T10:14:37.661Z,5.03
2023-02-21T10:17:30.632Z,5.78
2023-02-21T10:23:17.522Z,5.57
2023-02-21T10:26:09.824Z,4.75
2023-02-21T10:28:57.871Z,5.43
2023-02-21T10:31:48.489Z,6.63
2023-02-21T10:34:36.891Z,3.88
2023-02-21T10:37:36.575Z,4.72
2023-02-21T10:40:31.366Z,5.30
2023-02-21T10:43:24.426Z,6.25
2023-02-21T10:46:20.942Z,5.90
2023-02-21T10:49:30.269Z,4.97
2023-02-21T10:52:21.190Z,5.13
2023-02-21T10:55:31.414Z,5.57
2023-02-21T10:58:28.450Z,5.32
2023-02-21T11:01:19.358Z,5.20
2023-02-21T11:04:23.393Z,5.40
2023-02-21T11:07:15.965Z,4.63
2023-02-21T11:10:03.485Z,4.90
2023-02-21T11:13:04.580Z,3.80
2023-02-21T11:16:11.752Z,3.00
2023-02-21T11:19:07.287Z,3.10
2023-02-21T11:21:57.926Z,2.90
2023-02-21T11:24:54.888Z,4.15
2023-02-21T11:27:43.039Z,4.10
2023-02-21T11:30:33.675Z,3.88
2023-02-21T11:33:23.104Z,4.25
2023-02-21T11:36:14.399Z,2.92
2023-02-21T11:39:05.442Z,3.65
2023-02-21T11:41:55.962Z,7.80
2023-02-21T11:44:43.993Z,3.30
2023-02-21T11:47:39.870Z,3.33
2023-02-21T11:50:32.555Z,4.68
2023-02-21T11:53:27.721Z,4.10
2023-02-21T11:56:31.169Z,2.70
2023-02-21T12:02:45.100Z,2.75
2023-02-21T12:05:44.650Z,2.65
2023-02-21T12:08:47.607Z,2.33
2023-02-21T12:11:57.464Z,2.30
2023-02-21T12:15:01.077Z,3.72
2023-02-21T12:18:26.150Z,3.38
2023-02-21T12:21:32.963Z,3.50
2023-02-21T12:24:45.668Z,3.63
2023-02-21T12:27:43.877Z,2.78
2023-02-21T12:31:07.528Z,9.90
2023-02-21T12:34:20.739Z,4.35
2023-02-21T12:37:23.790Z,2.63
2023-02-21T12:43:32.603Z,1.90
2023-02-21T12:46:32.379Z,3.42
2023-02-21T12:49:25.710Z,2.33
2023-02-21T12:52:19.976Z,2.45
2023-02-21T12:55:17.192Z,2.22
2023-02-21T12:58:21.917Z,5.35
2023-02-21T13:01:15.857Z,4.38
2023-02-21T13:04:23.516Z,3.63
2023-02-21T13:07:25.471Z,3.60
2023-02-21T13:10:20.497Z,3.70
2023-02-21T13:13:16.120Z,5.18
2023-02-21T13:16:09.967Z,4.88
2023-02-21T13:19:03.960Z,3.75
2023-02-21T13:22:45.101Z,10.73
2023-02-21T13:25:59.153Z,6.72
2023-02-21T13:28:47.189Z,3.47
2023-02-21T13:31:39.133Z,2.90
2023-02-21T13:34:32.018Z,2.60
2023-02-21T13:37:24.627Z,2.00
2023-02-21T13:43:20.218Z,2.03
2023-02-21T13:47:15.854Z,2.45
2023-02-21T13:50:48.439Z,2.83
2023-02-21T13:54:12.989Z,3.35
2023-02-21T13:57:04.686Z,2.78
2023-02-21T13:59:52.385Z,2.90
2023-02-21T14:02:56.877Z,3.53
2023-02-21T14:06:24.506Z,2.70
2023-02-21T14:09:18.619Z,3.40
2023-02-21T14:12:07.913Z,5.20
2023-02-21T14:15:07.684Z,4.75
2023-02-21T14:17:55.626Z,4.90
2023-02-21T14:20:43.261Z,4.82
2023-02-21T14:23:46.243Z,4.60
2023-02-21T14:26:45.857Z,2.15
2023-02-21T14:29:40.130Z,2.67
2023-02-21T14:32:37.132Z,2.42
2023-02-21T14:35:34.523Z,2.63
2023-02-21T14:38:26.559Z,2.67
2023-02-21T14:41:39.161Z,2.67
2023-02-21T14:44:41.102Z,2.47
2023-02-21T14:48:19.392Z,1.90
2023-02-21T14:51:41.260Z,1.25
2023-02-21T14:55:08.659Z,2.00
2023-02-21T14:58:37.626Z,2.20
2023-02-21T15:01:58.415Z,2.13
2023-02-21T15:04:56.759Z,2.38
2023-02-21T15:07:59.647Z,2.60
2023-02-21T15:10:49.907Z,2.67
2023-02-21T15:13:37.655Z,2.78
2023-02-21T15:16:25.548Z,3.67
2023-02-21T15:19:25.395Z,2.30
2023-02-21T15:22:25.745Z,2.40
2023-02-21T15:25:21.993Z,11.05
2023-02-21T15:28:22.869Z,12.60
2023-02-21T15:31:13.251Z,5.65
2023-02-21T15:34:01.525Z,4.38
2023-02-21T15:36:59.871Z,5.68
2023-02-21T15:39:55.830Z,4.05
2023-02-21T15:42:45.402Z,2.10
2023-02-21T15:45:40.739Z,1.90
2023-02-21T15:48:29.301Z,3.10
2023-02-21T15:51:17.558Z,2.10
2023-02-21T15:54:31.484Z,9.02
2023-02-21T15:57:25.694Z,6.25
2023-02-21T16:00:27.315Z,8.75
2023-02-21T16:03:37.147Z,3.50
2023-02-21T16:06:28.407Z,2.95
2023-02-21T16:09:30.178Z,4.60
2023-02-21T16:12:34.065Z,1.77
2023-02-21T16:15:26.959Z,1.70
2023-02-21T16:18:19.942Z,2.47
2023-02-21T16:21:22.472Z,2.90
2023-02-21T16:24:33.681Z,5.55
2023-02-21T16:27:21.075Z,3.70
2023-02-21T16:30:16.253Z,3.15
2023-02-21T16:33:06.625Z,1.80
2023-02-21T16:35:54.704Z,1.95
2023-02-21T16:38:42.002Z,1.60
2023-02-21T16:41:30.972Z,1.40
2023-02-21T16:44:18.519Z,1.80
2023-02-21T16:47:08.050Z,2.60
2023-02-21T16:49:55.435Z,3.70
2023-02-21T16:52:42.781Z,2.20
2023-02-21T16:55:30.851Z,1.70
2023-02-21T16:58:26.214Z,2.30
2023-02-21T17:01:22.578Z,2.10
2023-02-21T17:04:17.284Z,1.60
2023-02-21T17:07:09.595Z,1.85
2023-02-21T17:09:57.187Z,2.67
2023-02-21T17:12:45.607Z,2.65
2023-02-21T17:15:34.735Z,3.05
2023-02-21T17:18:23.048Z,6.00
2023-02-21T17:21:10.648Z,3.60
2023-02-21T17:23:59.059Z,3.30
2023-02-21T17:26:46.906Z,4.22
2023-02-21T17:29:34.769Z,3.10
2023-02-21T17:32:24.053Z,3.30
2023-02-21T17:35:13.398Z,2.88
2023-02-21T17:38:01.735Z,3.53
2023-02-21T17:40:49.595Z,4.53
2023-02-21T17:43:37.159Z,8.15
2023-02-21T17:46:24.995Z,12.07
2023-02-21T17:49:14.055Z,11.75
2023-02-21T17:52:01.924Z,7.53
2023-02-21T17:54:51.087Z,6.82
2023-02-21T17:57:40.603Z,5.65
2023-02-21T18:00:32.978Z,6.38
2023-02-21T18:03:20.353Z,7.65
2023-02-21T18:06:09.502Z,7.65
2023-02-21T18:08:57.752Z,7.90
2023-02-21T18:11:50.961Z,9.02
2023-02-21T18:17:26.015Z,6.13
2023-02-21T18:20:15.525Z,5.30
2023-02-21T18:23:07.754Z,5.75
2023-02-21T18:25:55.521Z,6.27
2023-02-21T18:28:43.149Z,5.45
2023-02-21T18:31:30.770Z,5.32
2023-02-21T18:34:18.132Z,5.75
2023-02-21T18:37:06.020Z,5.57
2023-02-21T18:39:56.512Z,5.28
2023-02-21T18:42:44.239Z,5.65
2023-02-21T18:45:32.934Z,6.13
2023-02-21T18:48:20.427Z,5.68
2023-02-21T18:51:11.204Z,5.90
2023-02-21T18:53:58.941Z,5.65
2023-02-21T18:56:53.531Z,5.53
2023-02-21T18:59:41.364Z,5.60
2023-02-21T19:02:28.997Z,5.65
2023-02-21T19:05:19.988Z,5.45
2023-02-21T19:08:07.689Z,5.15
2023-02-21T19:10:55.260Z,4.80
2023-02-21T19:13:47.230Z,4.70
2023-02-21T19:16:35.233Z,4.70
2023-02-21T19:19:23.147Z,4.60
2023-02-21T19:22:11.014Z,4.20
2023-02-21T19:24:58.546Z,4.30
2023-02-21T19:27:46.802Z,4.45
2023-02-21T19:30:37.219Z,4.45
2023-02-21T19:33:24.722Z,4.05
2023-02-21T19:36:13.259Z,3.80
2023-02-21T19:39:01.092Z,4.13
2023-02-21T19:41:51.501Z,4.65
2023-02-21T19:44:39.314Z,4.68
2023-02-21T19:47:29.591Z,4.95
2023-02-21T19:50:17.640Z,4.78
2023-02-21T19:53:05.623Z,4.40
2023-02-21T19:55:54.488Z,4.40
2023-02-21T19:58:43.426Z,4.18
2023-02-21T20:01:32.524Z,4.43
2023-02-21T20:04:22.009Z,4.15
2023-02-21T20:07:09.871Z,3.88
2023-02-21T20:09:57.700Z,3.63
2023-02-21T20:12:45.080Z,3.70
2023-02-21T20:15:33.711Z,4.07
2023-02-21T20:18:21.317Z,4.00
2023-02-21T20:21:10.455Z,4.07
2023-02-21T20:23:59.905Z,3.50
2023-02-21T20:26:51.174Z,3.75
2023-02-21T20:29:39.253Z,3.53
2023-02-21T20:32:27.153Z,3.47
2023-02-21T20:35:15.134Z,3.50
2023-02-21T20:38:05.886Z,3.75
2023-02-21T20:40:53.288Z,3.45
2023-02-21T20:43:41.666Z,3.28
2023-02-21T20:46:29.800Z,3.30
2023-02-21T20:49:18.420Z,3.35
2023-02-21T20:52:06.794Z,3.60
2023-02-21T20:54:55.935Z,3.78
2023-02-21T20:57:43.787Z,3.80
2023-02-21T21:00:31.336Z,3.50
2023-02-21T21:03:19.677Z,4.03
2023-02-21T21:06:12.068Z,3.72
2023-02-21T21:08:59.659Z,3.83
2023-02-21T21:11:48.506Z,3.97
2023-02-21T21:14:41.519Z,3.78
2023-02-21T21:17:29.646Z,3.63
2023-02-21T21:20:21.222Z,3.95
2023-02-21T21:23:09.181Z,4.28
2023-02-21T21:25:59.177Z,4.20
2023-02-21T21:28:48.584Z,3.80
2023-02-21T21:31:36.232Z,4.40
2023-02-21T21:34:28.182Z,4.63
2023-02-21T21:37:18.414Z,4.82
2023-02-21T21:40:16.165Z,4.63
2023-02-21T21:43:07.551Z,5.07
2023-02-21T21:45:58.491Z,5.10
2023-02-21T21:48:46.292Z,5.22
2023-02-21T21:51:33.961Z,5.55
2023-02-21T21:54:21.520Z,4.95
2023-02-21T21:57:09.414Z,5.43
2023-02-21T21:59:57.892Z,5.20
2023-02-21T22:02:47.382Z,5.80
2023-02-21T22:05:35.340Z,5.45
2023-02-21T22:08:26.518Z,5.65
2023-02-21T22:11:13.870Z,4.95
2023-02-21T22:14:01.671Z,5.65
2023-02-21T22:16:52.140Z,5.25
2023-02-21T22:19:41.219Z,5.25
2023-02-21T22:22:28.709Z,5.15
2023-02-21T22:25:17.405Z,4.82
2023-02-21T22:28:09.504Z,5.30
2023-02-21T22:30:56.915Z,5.03
2023-02-21T22:33:46.139Z,4.88
2023-02-21T22:36:36.920Z,5.55
2023-02-21T22:39:26.766Z,5.03
2023-02-21T22:42:14.659Z,5.47
2023-02-21T22:45:02.627Z,5.63
2023-02-21T22:47:52.356Z,5.28
2023-02-21T22:50:40.331Z,5.18
2023-02-21T22:53:29.546Z,5.13
2023-02-21T22:56:18.661Z,5.53
2023-02-21T22:59:08.647Z,5.20
2023-02-21T23:01:58.247Z,4.90
2023-02-21T23:04:46.592Z,5.15
2023-02-21T23:07:34.252Z,5.35
2023-02-21T23:10:25.410Z,4.72
2023-02-21T23:13:15.526Z,5.55
2023-02-21T23:16:03.812Z,5.28
2023-02-21T23:18:51.432Z,5.90
2023-02-21T23:21:47.123Z,5.55
2023-02-21T23:24:34.661Z,5.20
2023-02-21T23:27:23.384Z,5.13
2023-02-21T23:30:12.184Z,5.15
2023-02-21T23:32:59.644Z,6.03
2023-02-21T23:35:50.255Z,5.25
2023-02-21T23:38:39.251Z,5.32
2023-02-21T23:41:29.013Z,5.30
2023-02-21T23:44:18.112Z,5.50
2023-02-21T23:47:06.324Z,5.30
2023-02-21T23:49:57.960Z,4.97
2023-02-21T23:52:50.627Z,5.22
2023-02-21T23:55:40.339Z,5.00
2023-02-21T23:58:31.425Z,5.45
